Time,TemperatureF,DewpointF,PressureIn,WindDirection,WindDirectionDegrees,WindSpeedMPH,WindSpeedGustMPH,Humidity,HourlyPrecipIn,Conditions,Clouds,dailyrainin,SolarRadiationWatts/m^2,SoftwareType,DateUTC
2013-09-09 00:01:00,51.2,44.0,30.06,NNW,334,0.0,0.0,75,0.00,,,0.00,0,weatherlink.com 1.10,2013-09-09 04:01:00,
2013-09-09 00:16:00,50.2,43.0,30.07,NNW,334,0.0,0.0,77,0.00,,,0.00,0,weatherlink.com 1.10,2013-09-09 04:16:00,
2013-09-09 00:31:00,49.7,43.0,30.07,NNW,335,0.0,0.0,79,0.00,,,0.00,0,weatherlink.com 1.10,2013-09-09 04:31:00,
2013-09-09 00:46:00,49.3,43.0,30.08,NNW,335,0.0,0.0,80,0.00,,,0.00,0,weatherlink.com 1.10,2013-09-09 04:46:00,
2013-09-09 01:01:00,48.7,43.0,30.08,NNW,335,0.0,0.0,82,0.00,,,0.00,0,weatherlink.com 1.10,2013-09-09 05:01:00,
2013-09-09 01:16:00,48.1,43.0,30.08,NNW,335,0.0,0.0,83,0.00,,,0.00,0,weatherlink.com 1.10,2013-09-09 05:16:00,
2013-09-09 01:31:00,47.6,43.0,30.09,NNW,335,0.0,0.0,84,0.00,,,0.00,0,weatherlink.com 1.10,2013-09-09 05:31:00,
2013-09-09 01:46:00,47.2,43.0,30.08,NNW,335,0.0,0.0,85,0.00,,,0.00,0,weatherlink.com 1.10,2013-09-09 05:46:00,
2013-09-09 02:01:00,46.8,43.0,30.09,NNW,335,0.0,0.0,86,0.00,,,0.00,0,weatherlink.com 1.10,2013-09-09 06:01:00,
2013-09-09 02:17:00,46.4,43.0,30.09,NNW,335,0.0,0.0,87,0.00,,,0.00,0,weatherlink.com 1.10,2013-09-09 06:17:00,
2013-09-09 02:32:00,46.0,43.0,30.09,NNW,335,0.0,0.0,88,0.00,,,0.00,0,weatherlink.com 1.10,2013-09-09 06:32:00,
2013-09-09 02:47:00,45.7,42.0,30.09,NNW,335,0.0,0.0,87,0.00,,,0.00,0,weatherlink.com 1.10,2013-09-09 06:47:00,
2013-09-09 03:02:00,45.3,42.0,30.09,NNW,335,0.0,0.0,88,0.00,,,0.00,0,weatherlink.com 1.10,2013-09-09 07:02:00,
2013-09-09 03:17:00,45.0,42.0,30.10,NNW,335,0.0,0.0,89,0.00,,,0.00,0,weatherlink.com 1.10,2013-09-09 07:17:00,
2013-09-09 03:32:00,44.7,42.0,30.10,NNW,335,0.0,0.0,89,0.00,,,0.00,0,weatherlink.com 1.10,2013-09-09 07:32:00,
2013-09-09 03:47:00,44.5,42.0,30.11,NNW,335,0.0,0.0,90,0.00,,,0.00,0,weatherlink.com 1.10,2013-09-09 07:47:00,
2013-09-09 04:02:00,44.2,42.0,30.11,NNW,335,0.0,0.0,90,0.00,,,0.00,0,weatherlink.com 1.10,2013-09-09 08:02:00,
2013-09-09 04:17:00,44.0,42.0,30.12,NNW,335,0.0,0.0,91,0.00,,,0.00,0,weatherlink.com 1.10,2013-09-09 08:17:00,
2013-09-09 04:32:00,43.8,41.0,30.13,NNW,335,0.0,0.0,91,0.00,,,0.00,0,weatherlink.com 1.10,2013-09-09 08:32:00,
2013-09-09 04:47:00,43.7,42.0,30.14,NNW,335,0.0,0.0,92,0.00,,,0.00,0,weatherlink.com 1.10,2013-09-09 08:47:00,
2013-09-09 05:02:00,43.6,42.0,30.14,NNW,335,0.0,0.0,92,0.00,,,0.00,0,weatherlink.com 1.10,2013-09-09 09:02:00,
2013-09-09 05:17:00,43.4,41.0,30.15,NNW,335,0.0,0.0,92,0.00,,,0.00,0,weatherlink.com 1.10,2013-09-09 09:17:00,
2013-09-09 05:32:00,43.0,41.0,30.16,NNW,335,0.0,0.0,92,0.00,,,0.00,0,weatherlink.com 1.10,2013-09-09 09:32:00,
2013-09-09 05:47:00,42.8,41.0,30.16,NNW,335,0.0,0.0,92,0.00,,,0.00,0,weatherlink.com 1.10,2013-09-09 09:47:00,
2013-09-09 06:02:00,42.7,41.0,30.16,NNW,335,0.0,1.0,93,0.00,,,0.00,0,weatherlink.com 1.10,2013-09-09 10:02:00,
2013-09-09 06:17:00,42.7,41.0,30.17,NNW,335,0.0,0.0,93,0.00,,,0.00,0,weatherlink.com 1.10,2013-09-09 10:17:00,
2013-09-09 06:32:00,42.7,41.0,30.18,NNW,335,0.0,0.0,93,0.00,,,0.00,0,weatherlink.com 1.10,2013-09-09 10:32:00,
2013-09-09 06:47:00,42.7,41.0,30.18,NNW,335,0.0,0.0,93,0.00,,,0.00,7,weatherlink.com 1.10,2013-09-09 10:47:00,
2013-09-09 07:02:00,42.9,41.0,30.19,NNW,335,0.0,0.0,93,0.00,,,0.00,12,weatherlink.com 1.10,2013-09-09 11:02:00,
2013-09-09 07:17:00,43.3,42.0,30.20,NNW,335,0.0,0.0,93,0.00,,,0.00,18,weatherlink.com 1.10,2013-09-09 11:17:00,
2013-09-09 07:32:00,43.9,42.0,30.20,NNW,335,0.0,0.0,94,0.00,,,0.00,21,weatherlink.com 1.10,2013-09-09 11:32:00,
2013-09-09 07:47:00,44.9,43.0,30.20,NNW,335,0.0,0.0,94,0.00,,,0.00,26,weatherlink.com 1.10,2013-09-09 11:47:00,
2013-09-09 08:02:00,45.8,44.0,30.20,NNW,335,0.0,0.0,94,0.00,,,0.00,162,weatherlink.com 1.10,2013-09-09 12:02:00,
2013-09-09 08:17:00,47.4,46.0,30.21,NNW,335,0.0,0.0,94,0.00,,,0.00,77,weatherlink.com 1.10,2013-09-09 12:17:00,
2013-09-09 08:32:00,49.0,47.0,30.21,NNW,335,0.0,1.0,93,0.00,,,0.00,37,weatherlink.com 1.10,2013-09-09 12:32:00,
2013-09-09 08:47:00,50.5,48.0,30.21,NNW,335,0.0,0.0,91,0.00,,,0.00,40,weatherlink.com 1.10,2013-09-09 12:47:00,
2013-09-09 09:02:00,52.1,48.0,30.22,NNW,335,0.0,1.0,86,0.00,,,0.00,42,weatherlink.com 1.10,2013-09-09 13:02:00,
2013-09-09 09:18:00,54.6,48.0,30.22,NNW,334,0.0,2.0,77,0.00,,,0.00,436,weatherlink.com 1.10,2013-09-09 13:18:00,
2013-09-09 09:33:00,56.9,48.0,30.22,NNW,334,0.0,2.0,71,0.00,,,0.00,227,weatherlink.com 1.10,2013-09-09 13:33:00,
2013-09-09 09:48:00,58.8,47.0,30.22,NNW,335,0.0,1.0,66,0.00,,,0.00,513,weatherlink.com 1.10,2013-09-09 13:48:00,
2013-09-09 10:03:00,60.8,48.0,30.22,NNW,335,0.0,2.0,63,0.00,,,0.00,619,weatherlink.com 1.10,2013-09-09 14:03:00,
2013-09-09 10:18:00,62.7,48.0,30.21,North,2,0.0,2.0,60,0.00,,,0.00,297,weatherlink.com 1.10,2013-09-09 14:18:00,
2013-09-09 10:33:00,64.5,48.0,30.21,East,96,0.0,3.0,56,0.00,,,0.00,292,weatherlink.com 1.10,2013-09-09 14:33:00,
2013-09-09 10:48:00,64.1,50.0,30.21,ESE,120,0.0,3.0,60,0.00,,,0.00,752,weatherlink.com 1.10,2013-09-09 14:48:00,
2013-09-09 11:03:00,65.6,50.0,30.21,SSW,204,1.0,3.0,58,0.00,,,0.00,793,weatherlink.com 1.10,2013-09-09 15:03:00,
2013-09-09 11:18:00,66.2,50.0,30.21,ESE,106,0.0,5.0,57,0.00,,,0.00,824,weatherlink.com 1.10,2013-09-09 15:18:00,
2013-09-09 11:33:00,65.4,49.0,30.21,ESE,112,2.0,3.0,56,0.00,,,0.00,726,weatherlink.com 1.10,2013-09-09 15:33:00,
2013-09-09 11:48:00,66.1,49.0,30.20,SSW,197,0.0,2.0,54,0.00,,,0.00,805,weatherlink.com 1.10,2013-09-09 15:48:00,
2013-09-09 12:03:00,66.9,50.0,30.20,WNW,292,0.0,3.0,54,0.00,,,0.00,770,weatherlink.com 1.10,2013-09-09 16:03:00,
2013-09-09 12:18:00,67.2,51.0,30.19,SSW,209,1.0,4.0,56,0.00,,,0.00,768,weatherlink.com 1.10,2013-09-09 16:18:00,
2013-09-09 12:33:00,67.4,52.0,30.19,South,179,4.0,4.0,58,0.00,,,0.00,656,weatherlink.com 1.10,2013-09-09 16:33:00,
2013-09-09 12:48:00,67.7,52.0,30.19,SW,224,1.0,3.0,58,0.00,,,0.00,489,weatherlink.com 1.10,2013-09-09 16:48:00,
2013-09-09 13:03:00,67.0,52.0,30.19,ESE,120,0.0,4.0,58,0.00,,,0.00,580,weatherlink.com 1.10,2013-09-09 17:03:00,
2013-09-09 13:18:00,67.2,51.0,30.18,West,270,1.0,3.0,56,0.00,,,0.00,737,weatherlink.com 1.10,2013-09-09 17:18:00,
2013-09-09 13:33:00,67.5,52.0,30.18,SSW,206,0.0,4.0,57,0.00,,,0.00,759,weatherlink.com 1.10,2013-09-09 17:33:00,
2013-09-09 13:48:00,68.3,51.0,30.18,South,187,1.0,4.0,54,0.00,,,0.00,517,weatherlink.com 1.10,2013-09-09 17:48:00,
2013-09-09 14:03:00,67.8,51.0,30.18,SE,133,2.0,4.0,55,0.00,,,0.00,631,weatherlink.com 1.10,2013-09-09 18:03:00,
2013-09-09 14:22:00,68.1,51.0,30.17,ESE,119,1.0,5.0,54,0.00,,,0.00,656,weatherlink.com 1.10,2013-09-09 18:22:00,
2013-09-09 14:33:00,67.2,50.0,30.17,SW,214,1.0,5.0,55,0.00,,,0.00,258,weatherlink.com 1.10,2013-09-09 18:33:00,
2013-09-09 14:48:00,65.8,49.0,30.17,East,99,1.0,3.0,56,0.00,,,0.00,193,weatherlink.com 1.10,2013-09-09 18:48:00,
2013-09-09 15:03:00,65.0,49.0,30.18,South,169,0.0,5.0,56,0.00,,,0.00,283,weatherlink.com 1.10,2013-09-09 19:03:00,
2013-09-09 15:18:00,65.4,48.0,30.18,SSW,213,2.0,7.0,53,0.00,,,0.00,264,weatherlink.com 1.10,2013-09-09 19:18:00,
2013-09-09 15:33:00,65.2,47.0,30.18,SSE,164,0.0,4.0,53,0.00,,,0.00,431,weatherlink.com 1.10,2013-09-09 19:33:00,
2013-09-09 15:48:00,64.7,48.0,30.17,SSW,202,0.0,3.0,55,0.00,,,0.00,313,weatherlink.com 1.10,2013-09-09 19:48:00,
2013-09-09 16:03:00,64.9,50.0,30.17,SE,135,1.0,3.0,58,0.00,,,0.00,225,weatherlink.com 1.10,2013-09-09 20:03:00,
2013-09-09 16:18:00,64.6,50.0,30.18,ESE,112,0.0,3.0,60,0.00,,,0.00,188,weatherlink.com 1.10,2013-09-09 20:18:00,
2013-09-09 16:33:00,64.2,51.0,30.18,South,177,0.0,2.0,62,0.00,,,0.00,174,weatherlink.com 1.10,2013-09-09 20:33:00,
2013-09-09 16:48:00,64.4,51.0,30.18,SSW,208,2.0,3.0,63,0.00,,,0.00,153,weatherlink.com 1.10,2013-09-09 20:48:00,
2013-09-09 17:03:00,64.6,52.0,30.17,SSW,213,0.0,5.0,64,0.00,,,0.00,114,weatherlink.com 1.10,2013-09-09 21:03:00,
2013-09-09 17:33:00,63.7,51.0,30.17,SW,219,1.0,4.0,63,0.00,,,0.00,95,weatherlink.com 1.10,2013-09-09 21:33:00,
2013-09-09 17:48:00,63.5,51.0,30.16,South,189,0.0,2.0,64,0.00,,,0.00,51,weatherlink.com 1.10,2013-09-09 21:48:00,
2013-09-09 18:04:00,62.8,52.0,30.16,South,190,0.0,3.0,67,0.00,,,0.00,40,weatherlink.com 1.10,2013-09-09 22:04:00,
2013-09-09 18:19:00,62.3,52.0,30.16,South,188,0.0,1.0,70,0.00,,,0.00,33,weatherlink.com 1.10,2013-09-09 22:19:00,
2013-09-09 18:34:00,61.7,53.0,30.16,South,188,0.0,1.0,73,0.00,,,0.00,21,weatherlink.com 1.10,2013-09-09 22:34:00,
2013-09-09 18:49:00,60.9,53.0,30.16,South,188,0.0,1.0,75,0.00,,,0.00,11,weatherlink.com 1.10,2013-09-09 22:49:00,
2013-09-09 19:04:00,59.8,53.0,30.16,South,188,0.0,0.0,78,0.00,,,0.00,0,weatherlink.com 1.10,2013-09-09 23:04:00,
2013-09-09 19:19:00,58.8,53.0,30.16,South,187,0.0,0.0,81,0.00,,,0.00,0,weatherlink.com 1.10,2013-09-09 23:19:00,
2013-09-09 19:34:00,57.7,52.0,30.16,South,187,0.0,0.0,82,0.00,,,0.00,0,weatherlink.com 1.10,2013-09-09 23:34:00,
2013-09-09 19:49:00,57.1,52.0,30.15,South,187,0.0,0.0,84,0.00,,,0.00,0,weatherlink.com 1.10,2013-09-09 23:49:00,
2013-09-09 20:04:00,56.2,52.0,30.16,South,188,0.0,0.0,85,0.00,,,0.00,0,weatherlink.com 1.10,2013-09-10 00:04:00,
2013-09-09 20:19:00,55.4,52.0,30.15,South,188,0.0,0.0,87,0.00,,,0.00,0,weatherlink.com 1.10,2013-09-10 00:19:00,
2013-09-09 20:34:00,54.7,52.0,30.16,South,188,0.0,0.0,89,0.00,,,0.00,0,weatherlink.com 1.10,2013-09-10 00:34:00,
2013-09-09 20:49:00,54.1,51.0,30.16,South,188,0.0,0.0,90,0.00,,,0.00,0,weatherlink.com 1.10,2013-09-10 00:49:00,
2013-09-09 21:04:00,53.8,51.0,30.16,South,187,0.0,0.0,90,0.00,,,0.00,0,weatherlink.com 1.10,2013-09-10 01:04:00,
2013-09-09 21:19:00,53.5,51.0,30.16,South,187,0.0,0.0,91,0.00,,,0.00,0,weatherlink.com 1.10,2013-09-10 01:19:00,
2013-09-09 21:34:00,53.3,51.0,30.16,South,187,0.0,0.0,91,0.00,,,0.00,0,weatherlink.com 1.10,2013-09-10 01:34:00,
2013-09-09 21:49:00,53.1,51.0,30.16,South,188,0.0,0.0,92,0.00,,,0.00,0,weatherlink.com 1.10,2013-09-10 01:49:00,
2013-09-09 22:04:00,53.0,51.0,30.16,South,188,0.0,0.0,93,0.00,,,0.00,0,weatherlink.com 1.10,2013-09-10 02:04:00,
2013-09-09 22:18:00,53.0,51.0,30.16,South,187,0.0,0.0,93,0.00,,,0.00,0,weatherlink.com 1.10,2013-09-10 02:18:00,
2013-09-09 22:33:00,53.0,51.0,30.16,South,187,0.0,1.0,93,0.00,,,0.00,0,weatherlink.com 1.10,2013-09-10 02:33:00,
2013-09-09 22:48:00,53.0,51.0,30.16,South,188,0.0,1.0,93,0.00,,,0.00,0,weatherlink.com 1.10,2013-09-10 02:48:00,
2013-09-09 23:03:00,53.0,51.0,30.16,South,188,0.0,0.0,93,0.00,,,0.00,0,weatherlink.com 1.10,2013-09-10 03:03:00,
2013-09-09 23:19:00,52.7,51.0,30.16,South,188,0.0,0.0,93,0.00,,,0.00,0,weatherlink.com 1.10,2013-09-10 03:19:00,
2013-09-09 23:33:00,52.6,51.0,30.15,South,188,0.0,0.0,93,0.00,,,0.00,0,weatherlink.com 1.10,2013-09-10 03:33:00,
2013-09-09 23:49:00,52.4,51.0,30.15,South,188,0.0,0.0,93,0.00,,,0.00,0,weatherlink.com 1.10,2013-09-10 03:49:00,